sensor_id;sensor_type;location;lat;lon;timestamp;pressure;altitude;pressure_sealevel;temperature;humidity
61674;BME280;47573;43.832;5.974;2022-09-12T00:01:25;95229.66;;;28.12;47.67
61674;BME280;47573;43.832;5.974;2022-09-12T00:06:27;95226.91;;;28.07;47.68
61674;BME280;47573;43.832;5.974;2022-09-12T00:11:29;95229.38;;;28.09;47.54
61674;BME280;47573;43.832;5.974;2022-09-12T00:16:32;95222.81;;;28.05;47.87
61674;BME280;47573;43.832;5.974;2022-09-12T00:21:35;95229.66;;;28.02;48.07
61674;BME280;47573;43.832;5.974;2022-09-12T00:26:37;95219.22;;;28.04;47.76
61674;BME280;47573;43.832;5.974;2022-09-12T00:31:38;95214.81;;;28.18;47.58
61674;BME280;47573;43.832;5.974;2022-09-12T00:36:39;95218.94;;;28.06;48.24
61674;BME280;47573;43.832;5.974;2022-09-12T00:41:41;95223.09;;;27.98;47.76
61674;BME280;47573;43.832;5.974;2022-09-12T00:46:44;95207.97;;;27.96;47.91
61674;BME280;47573;43.832;5.974;2022-09-12T00:51:48;95203.84;;;28.03;47.92
61674;BME280;47573;43.832;5.974;2022-09-12T00:56:52;95206.59;;;28.08;47.72
61674;BME280;47573;43.832;5.974;2022-09-12T01:01:55;95197.25;;;28.09;47.50
61674;BME280;47573;43.832;5.974;2022-09-12T01:06:57;95191.50;;;28.06;47.44
61674;BME280;47573;43.832;5.974;2022-09-12T01:12:00;95192.88;;;28.03;47.57
61674;BME280;47573;43.832;5.974;2022-09-12T01:17:01;95194.75;;;28.23;47.49
61674;BME280;47573;43.832;5.974;2022-09-12T01:22:10;95194.38;;;28.44;47.28
61674;BME280;47573;43.832;5.974;2022-09-12T01:27:48;95195.59;;;28.23;47.58
61674;BME280;47573;43.832;5.974;2022-09-12T01:38:36;95186.81;;;28.16;47.57
61674;BME280;47573;43.832;5.974;2022-09-12T01:43:43;95184.63;;;28.08;47.58
61674;BME280;47573;43.832;5.974;2022-09-12T01:48:49;95171.72;;;28.14;47.48
61674;BME280;47573;43.832;5.974;2022-09-12T01:53:56;95177.50;;;28.07;47.42
61674;BME280;47573;43.832;5.974;2022-09-12T01:59:02;95170.34;;;28.11;47.27
61674;BME280;47573;43.832;5.974;2022-09-12T02:04:08;95180.78;;;28.14;47.38
61674;BME280;47573;43.832;5.974;2022-09-12T02:09:16;95187.63;;;28.12;47.50
61674;BME280;47573;43.832;5.974;2022-09-12T02:14:20;95183.53;;;28.09;47.53
61674;BME280;47573;43.832;5.974;2022-09-12T02:19:24;95182.97;;;28.12;47.44
61674;BME280;47573;43.832;5.974;2022-09-12T02:24:32;95175.56;;;28.13;47.15
61674;BME280;47573;43.832;5.974;2022-09-12T02:29:35;95170.88;;;28.13;47.36
61674;BME280;47573;43.832;5.974;2022-09-12T02:34:42;95173.66;;;28.08;47.22
61674;BME280;47573;43.832;5.974;2022-09-12T02:39:46;95172.28;;;28.06;47.28
61674;BME280;47573;43.832;5.974;2022-09-12T02:44:47;95169.81;;;27.99;47.51
61674;BME280;47573;43.832;5.974;2022-09-12T02:49:48;95165.41;;;28.03;47.52
61674;BME280;47573;43.832;5.974;2022-09-12T02:54:51;95162.38;;;27.95;47.64
61674;BME280;47573;43.832;5.974;2022-09-12T02:59:55;95167.06;;;27.94;47.53
61674;BME280;47573;43.832;5.974;2022-09-12T03:05:18;95152.81;;;27.92;47.60
61674;BME280;47573;43.832;5.974;2022-09-12T03:10:26;95162.72;;;27.98;47.53
61674;BME280;47573;43.832;5.974;2022-09-12T03:15:36;95158.00;;;27.88;47.48
61674;BME280;47573;43.832;5.974;2022-09-12T03:20:45;95165.16;;;27.84;47.69
61674;BME280;47573;43.832;5.974;2022-09-12T03:25:54;95157.75;;;27.90;47.66
61674;BME280;47573;43.832;5.974;2022-09-12T03:30:56;95157.75;;;27.90;47.55
61674;BME280;47573;43.832;5.974;2022-09-12T03:35:57;95155.56;;;27.87;47.68
61674;BME280;47573;43.832;5.974;2022-09-12T03:40:59;95160.78;;;27.83;47.52
61674;BME280;47573;43.832;5.974;2022-09-12T03:46:00;95143.50;;;27.83;47.54
61674;BME280;47573;43.832;5.974;2022-09-12T03:51:01;95148.16;;;27.82;47.69
61674;BME280;47573;43.832;5.974;2022-09-12T03:56:06;95145.69;;;27.86;47.62
61674;BME280;47573;43.832;5.974;2022-09-12T04:01:08;95146.25;;;27.83;47.60
61674;BME280;47573;43.832;5.974;2022-09-12T04:06:10;95144.88;;;27.80;47.40
61674;BME280;47573;43.832;5.974;2022-09-12T04:11:14;95147.91;;;27.79;47.68
61674;BME280;47573;43.832;5.974;2022-09-12T04:16:15;95145.16;;;27.74;47.61
61674;BME280;47573;43.832;5.974;2022-09-12T04:21:18;95140.78;;;27.73;47.79
61674;BME280;47573;43.832;5.974;2022-09-12T04:26:20;95146.81;;;27.65;47.84
61674;BME280;47573;43.832;5.974;2022-09-12T04:31:21;95158.31;;;27.72;47.91
61674;BME280;47573;43.832;5.974;2022-09-12T04:36:22;95146.53;;;27.61;48.07
61674;BME280;47573;43.832;5.974;2022-09-12T04:41:25;95150.38;;;27.70;47.80
61674;BME280;47573;43.832;5.974;2022-09-12T04:46:27;95141.06;;;27.56;47.90
61674;BME280;47573;43.832;5.974;2022-09-12T04:51:29;95150.94;;;27.57;47.98
61674;BME280;47573;43.832;5.974;2022-09-12T04:56:31;95147.94;;;27.59;47.85
61674;BME280;47573;43.832;5.974;2022-09-12T05:01:32;95144.06;;;27.60;47.91
61674;BME280;47573;43.832;5.974;2022-09-12T05:06:34;95144.63;;;27.27;45.60
61674;BME280;47573;43.832;5.974;2022-09-12T05:11:39;95136.44;;;25.73;47.58
61674;BME280;47573;43.832;5.974;2022-09-12T05:16:40;95129.06;;;25.36;47.82
61674;BME280;47573;43.832;5.974;2022-09-12T05:21:40;95139.56;;;25.49;47.92
61674;BME280;47573;43.832;5.974;2022-09-12T05:26:42;95137.22;;;25.68;47.64
61674;BME280;47573;43.832;5.974;2022-09-12T05:31:42;95136.66;;;25.66;47.08
61674;BME280;47573;43.832;5.974;2022-09-12T05:36:43;95147.09;;;25.37;47.36
61674;BME280;47573;43.832;5.974;2022-09-12T05:41:45;95163.84;;;25.14;48.00
61674;BME280;47573;43.832;5.974;2022-09-12T05:46:45;95158.28;;;24.51;49.16
61674;BME280;47573;43.832;5.974;2022-09-12T05:51:46;95162.38;;;24.27;49.74
61674;BME280;47573;43.832;5.974;2022-09-12T05:56:48;95158.69;;;24.38;49.71
61674;BME280;47573;43.832;5.974;2022-09-12T06:01:48;95162.72;;;24.57;49.92
61674;BME280;47573;43.832;5.974;2022-09-12T06:06:49;95175.38;;;24.90;49.02
61674;BME280;47573;43.832;5.974;2022-09-12T06:11:51;95180.88;;;25.21;48.22
61674;BME280;47573;43.832;5.974;2022-09-12T06:16:51;95176.59;;;25.35;48.15
61674;BME280;47573;43.832;5.974;2022-09-12T06:21:52;95189.81;;;25.43;48.20
61674;BME280;47573;43.832;5.974;2022-09-12T06:26:54;95197.19;;;25.16;48.81
61674;BME280;47573;43.832;5.974;2022-09-12T06:31:55;95207.97;;;25.60;48.28
61674;BME280;47573;43.832;5.974;2022-09-12T06:36:56;95211.38;;;25.72;48.07
61674;BME280;47573;43.832;5.974;2022-09-12T06:41:58;95217.63;;;25.67;48.69
61674;BME280;47573;43.832;5.974;2022-09-12T06:46:58;95215.84;;;25.88;48.43
61674;BME280;47573;43.832;5.974;2022-09-12T06:51:58;95221.09;;;25.94;48.77
61674;BME280;47573;43.832;5.974;2022-09-12T06:57:00;95220.44;;;26.19;49.03
61674;BME280;47573;43.832;5.974;2022-09-12T07:02:01;95220.44;;;26.19;48.80
61674;BME280;47573;43.832;5.974;2022-09-12T07:07:01;95209.25;;;26.25;47.65
61674;BME280;47573;43.832;5.974;2022-09-12T07:12:04;95227.59;;;26.25;48.44
61674;BME280;47573;43.832;5.974;2022-09-12T07:17:04;95222.75;;;26.42;48.20
61674;BME280;47573;43.832;5.974;2022-09-12T07:22:05;95218.88;;;26.33;47.18
61674;BME280;47573;43.832;5.974;2022-09-12T07:27:06;95237.50;;;26.36;47.25
61674;BME280;47573;43.832;5.974;2022-09-12T07:32:07;95253.44;;;26.49;47.27
61674;BME280;47573;43.832;5.974;2022-09-12T07:37:07;95245.38;;;26.84;46.01
61674;BME280;47573;43.832;5.974;2022-09-12T07:42:09;95247.47;;;26.62;46.64
61674;BME280;47573;43.832;5.974;2022-09-12T07:47:10;95251.94;;;26.73;47.07
61674;BME280;47573;43.832;5.974;2022-09-12T07:52:10;95250.31;;;26.77;47.07
61674;BME280;47573;43.832;5.974;2022-09-12T07:57:12;95245.38;;;26.84;46.51
61674;BME280;47573;43.832;5.974;2022-09-12T08:02:12;95243.78;;;26.93;46.54
61674;BME280;47573;43.832;5.974;2022-09-12T08:07:14;95242.19;;;27.02;46.17
61674;BME280;47573;43.832;5.974;2022-09-12T08:12:16;95241.69;;;27.26;46.35
61674;BME280;47573;43.832;5.974;2022-09-12T08:17:16;95247.97;;;27.26;46.93
61674;BME280;47573;43.832;5.974;2022-09-12T08:22:17;95240.59;;;27.32;46.85
61674;BME280;47573;43.832;5.974;2022-09-12T08:27:18;95240.06;;;27.35;46.71
61674;BME280;47573;43.832;5.974;2022-09-12T08:32:19;95243.66;;;27.40;46.85
61674;BME280;47573;43.832;5.974;2022-09-12T08:37:19;95259.81;;;27.47;46.57
61674;BME280;47573;43.832;5.974;2022-09-12T08:42:28;95249.41;;;27.44;46.91
61674;BME280;47573;43.832;5.974;2022-09-12T08:47:33;95257.34;;;27.45;46.60
61674;BME280;47573;43.832;5.974;2022-09-12T08:52:41;95252.97;;;27.49;46.63
61674;BME280;47573;43.832;5.974;2022-09-12T08:57:43;95252.69;;;27.56;46.42
61674;BME280;47573;43.832;5.974;2022-09-12T09:03:08;95248.31;;;27.50;46.98
61674;BME280;47573;43.832;5.974;2022-09-12T09:08:37;95245.31;;;27.56;46.45
61674;BME280;47573;43.832;5.974;2022-09-12T09:13:50;95256.56;;;27.55;46.74
61674;BME280;47573;43.832;5.974;2022-09-12T09:18:53;95246.94;;;27.52;46.57
61674;BME280;47573;43.832;5.974;2022-09-12T09:24:00;95245.84;;;27.68;46.69
61674;BME280;47573;43.832;5.974;2022-09-12T09:29:05;95259.00;;;27.66;46.74
61674;BME280;47573;43.832;5.974;2022-09-12T09:34:14;95255.72;;;27.64;46.69
61674;BME280;47573;43.832;5.974;2022-09-12T09:39:33;95260.09;;;27.80;46.44
61674;BME280;47573;43.832;5.974;2022-09-12T09:44:37;95270.56;;;27.73;46.43
61674;BME280;47573;43.832;5.974;2022-09-12T09:49:38;95272.44;;;27.78;46.52
61674;BME280;47573;43.832;5.974;2022-09-12T09:54:43;95276.28;;;27.82;46.21
61674;BME280;47573;43.832;5.974;2022-09-12T09:59:46;95277.41;;;27.81;46.51
61674;BME280;47573;43.832;5.974;2022-09-12T10:04:53;95274.09;;;27.79;46.47
61674;BME280;47573;43.832;5.974;2022-09-12T10:10:05;95259.84;;;27.92;46.30
61674;BME280;47573;43.832;5.974;2022-09-12T10:15:16;95263.69;;;27.86;46.62
61674;BME280;47573;43.832;5.974;2022-09-12T10:20:33;95262.59;;;27.92;46.51
61674;BME280;47573;43.832;5.974;2022-09-12T10:25:34;95252.59;;;27.16;48.21
61674;BME280;47573;43.832;5.974;2022-09-12T10:30:36;95252.53;;;26.85;49.16
61674;BME280;47573;43.832;5.974;2022-09-12T10:35:46;95263.22;;;26.82;49.19
61674;BME280;47573;43.832;5.974;2022-09-12T10:40:54;95263.97;;;26.72;49.32
61674;BME280;47573;43.832;5.974;2022-09-12T10:45:58;95248.41;;;26.78;49.23
61674;BME280;47573;43.832;5.974;2022-09-12T10:50:59;95249.22;;;26.73;49.73
61674;BME280;47573;43.832;5.974;2022-09-12T10:56:07;95241.53;;;26.75;49.82
61674;BME280;47573;43.832;5.974;2022-09-12T11:01:17;95238.81;;;26.80;49.51
61674;BME280;47573;43.832;5.974;2022-09-12T11:06:28;95232.78;;;26.73;49.59
61674;BME280;47573;43.832;5.974;2022-09-12T11:11:47;95243.19;;;26.86;49.51
61674;BME280;47573;43.832;5.974;2022-09-12T11:16:58;95243.19;;;26.76;49.75
61674;BME280;47573;43.832;5.974;2022-09-12T11:22:15;95230.06;;;26.88;49.46
61674;BME280;47573;43.832;5.974;2022-09-12T11:27:30;95228.44;;;26.97;49.66
61674;BME280;47573;43.832;5.974;2022-09-12T11:32:45;95228.44;;;26.97;49.51
61674;BME280;47573;43.832;5.974;2022-09-12T11:38:05;95219.16;;;26.98;49.54
61674;BME280;47573;43.832;5.974;2022-09-12T11:43:23;95215.56;;;27.03;49.57
61674;BME280;47573;43.832;5.974;2022-09-12T11:48:40;95207.06;;;26.89;49.82
61674;BME280;47573;43.832;5.974;2022-09-12T11:53:43;95212.56;;;26.94;49.70
61674;BME280;47573;43.832;5.974;2022-09-12T11:58:53;95211.50;;;27.21;49.23
61674;BME280;47573;43.832;5.974;2022-09-12T12:04:00;95203.25;;;27.05;49.79
61674;BME280;47573;43.832;5.974;2022-09-12T12:09:05;95205.44;;;27.03;49.85
61674;BME280;47573;43.832;5.974;2022-09-12T12:14:12;95195.59;;;27.23;49.43
61674;BME280;47573;43.832;5.974;2022-09-12T12:19:31;95199.97;;;27.14;49.78
61674;BME280;47573;43.832;5.974;2022-09-12T12:24:32;95201.09;;;27.28;49.31
61674;BME280;47573;43.832;5.974;2022-09-12T12:29:38;95195.88;;;27.11;49.53
61674;BME280;47573;43.832;5.974;2022-09-12T12:34:42;95194.47;;;27.03;50.02
61674;BME280;47573;43.832;5.974;2022-09-12T12:39:57;95197.78;;;27.11;49.87
61674;BME280;47573;43.832;5.974;2022-09-12T12:44:59;95196.69;;;27.12;50.10
61674;BME280;47573;43.832;5.974;2022-09-12T12:50:04;95189.56;;;27.05;50.21
61674;BME280;47573;43.832;5.974;2022-09-12T12:55:12;95189.00;;;27.03;50.48
61674;BME280;47573;43.832;5.974;2022-09-12T13:00:32;95174.75;;;27.12;50.02
61674;BME280;47573;43.832;5.974;2022-09-12T13:05:40;95165.97;;;27.09;50.21
61674;BME280;47573;43.832;5.974;2022-09-12T13:10:48;95164.91;;;27.26;49.81
61674;BME280;47573;43.832;5.974;2022-09-12T13:15:50;95167.09;;;27.14;50.50
61674;BME280;47573;43.832;5.974;2022-09-12T13:20:56;95161.06;;;27.17;50.51
61674;BME280;47573;43.832;5.974;2022-09-12T13:26:00;95160.50;;;27.20;50.52
61674;BME280;47573;43.832;5.974;2022-09-12T13:31:09;95161.06;;;27.27;50.24
61674;BME280;47573;43.832;5.974;2022-09-12T13:36:52;95152.28;;;27.15;50.80
61674;BME280;47573;43.832;5.974;2022-09-12T13:42:24;95151.19;;;27.11;50.73
61674;BME280;47573;43.832;5.974;2022-09-12T13:47:31;95139.13;;;27.17;50.89
61674;BME280;47573;43.832;5.974;2022-09-12T13:52:35;95141.88;;;27.17;50.87
61674;BME280;47573;43.832;5.974;2022-09-12T13:57:38;95134.75;;;27.21;50.71
61674;BME280;47573;43.832;5.974;2022-09-12T14:02:39;95135.88;;;27.40;50.02
61674;BME280;47573;43.832;5.974;2022-09-12T14:07:55;95118.56;;;27.24;50.40
61674;BME280;47573;43.832;5.974;2022-09-12T14:12:57;95113.38;;;27.28;50.46
61674;BME280;47573;43.832;5.974;2022-09-12T14:18:00;95110.63;;;27.33;50.69
61674;BME280;47573;43.832;5.974;2022-09-12T14:23:04;95115.00;;;27.49;50.04
61674;BME280;47573;43.832;5.974;2022-09-12T14:28:10;95118.59;;;27.39;50.63
61674;BME280;47573;43.832;5.974;2022-09-12T14:33:19;95108.16;;;27.36;50.56
61674;BME280;47573;43.832;5.974;2022-09-12T14:38:25;95100.75;;;27.47;50.42
61674;BME280;47573;43.832;5.974;2022-09-12T14:43:32;95091.69;;;27.61;50.47
61674;BME280;47573;43.832;5.974;2022-09-12T14:48:35;95093.09;;;27.59;50.25
61674;BME280;47573;43.832;5.974;2022-09-12T14:53:46;95083.50;;;27.46;50.64
61674;BME280;47573;43.832;5.974;2022-09-12T14:58:47;95087.59;;;27.49;50.73
61674;BME280;47573;43.832;5.974;2022-09-12T15:03:49;95083.72;;;27.60;50.43
61674;BME280;47573;43.832;5.974;2022-09-12T15:08:53;95082.66;;;27.61;50.32
61674;BME280;47573;43.832;5.974;2022-09-12T15:13:54;95075.50;;;27.65;50.53
61674;BME280;47573;43.832;5.974;2022-09-12T15:18:54;95075.50;;;27.65;50.78
61674;BME280;47573;43.832;5.974;2022-09-12T15:23:56;95084.81;;;27.69;50.52
61674;BME280;47573;43.832;5.974;2022-09-12T15:28:57;95075.97;;;27.87;50.27
61674;BME280;47573;43.832;5.974;2022-09-12T15:33:58;95064.50;;;27.70;50.32
61674;BME280;47573;43.832;5.974;2022-09-12T15:39:01;95068.84;;;27.96;49.78
61674;BME280;47573;43.832;5.974;2022-09-12T15:44:02;95061.13;;;28.08;49.59
61674;BME280;47573;43.832;5.974;2022-09-12T15:49:03;95058.38;;;28.08;49.29
61674;BME280;47573;43.832;5.974;2022-09-12T15:54:05;95053.06;;;28.22;49.07
61674;BME280;47573;43.832;5.974;2022-09-12T15:59:05;95041.41;;;28.45;48.78
61674;BME280;47573;43.832;5.974;2022-09-12T16:04:18;95043.38;;;28.39;48.97
61674;BME280;47573;43.832;5.974;2022-09-12T16:09:22;95034.69;;;28.17;49.70
61674;BME280;47573;43.832;5.974;2022-09-12T16:14:23;95033.06;;;28.16;49.63
61674;BME280;47573;43.832;5.974;2022-09-12T16:19:24;95019.06;;;28.18;49.94
61674;BME280;47573;43.832;5.974;2022-09-12T16:24:26;95017.66;;;28.25;49.53
61674;BME280;47573;43.832;5.974;2022-09-12T16:29:27;95014.91;;;28.25;49.54
61674;BME280;47573;43.832;5.974;2022-09-12T16:34:27;95021.47;;;28.29;49.36
61674;BME280;47573;43.832;5.974;2022-09-12T16:39:29;95019.50;;;28.40;49.13
61674;BME280;47573;43.832;5.974;2022-09-12T16:44:30;95023.00;;;28.45;49.14
61674;BME280;47573;43.832;5.974;2022-09-12T16:49:30;95022.41;;;28.53;48.76
61674;BME280;47573;43.832;5.974;2022-09-12T16:54:32;95017.53;;;28.40;48.98
61674;BME280;47573;43.832;5.974;2022-09-12T16:59:32;95015.94;;;28.34;49.20
61674;BME280;47573;43.832;5.974;2022-09-12T17:04:33;95027.22;;;28.33;49.46
61674;BME280;47573;43.832;5.974;2022-09-12T17:09:35;95028.03;;;28.33;49.43
61674;BME280;47573;43.832;5.974;2022-09-12T17:14:35;95031.25;;;28.45;49.30
61674;BME280;47573;43.832;5.974;2022-09-12T17:19:36;95037.31;;;28.42;49.26
61674;BME280;47573;43.832;5.974;2022-09-12T17:24:37;95033.53;;;28.33;49.58
61674;BME280;47573;43.832;5.974;2022-09-12T17:29:38;95035.75;;;28.26;49.56
61674;BME280;47573;43.832;5.974;2022-09-12T17:34:38;95034.91;;;28.31;49.54
61674;BME280;47573;43.832;5.974;2022-09-12T17:39:40;95028.56;;;28.35;49.29
61674;BME280;47573;43.832;5.974;2022-09-12T17:44:41;95037.72;;;28.16;49.76
61674;BME280;47573;43.832;5.974;2022-09-12T17:49:41;95037.19;;;28.14;49.94
61674;BME280;47573;43.832;5.974;2022-09-12T17:54:43;95034.91;;;28.31;48.72
61674;BME280;47573;43.832;5.974;2022-09-12T17:59:43;95043.53;;;28.09;50.02
61674;BME280;47573;43.832;5.974;2022-09-12T18:04:45;95038.63;;;28.01;50.48
61674;BME280;47573;43.832;5.974;2022-09-12T18:09:47;95035.81;;;28.21;50.06
61674;BME280;47573;43.832;5.974;2022-09-12T18:14:47;95055.09;;;28.06;50.16
61674;BME280;47573;43.832;5.974;2022-09-12T18:19:47;95046.84;;;28.01;50.42
61674;BME280;47573;43.832;5.974;2022-09-12T18:24:49;95055.63;;;28.03;50.26
61674;BME280;47573;43.832;5.974;2022-09-12T18:29:50;95072.91;;;28.09;49.99
61674;BME280;47573;43.832;5.974;2022-09-12T18:34:50;95071.03;;;27.99;50.39
61674;BME280;47573;43.832;5.974;2022-09-12T18:39:52;95070.41;;;28.12;50.31
61674;BME280;47573;43.832;5.974;2022-09-12T18:44:52;95077.47;;;28.28;50.20
61674;BME280;47573;43.832;5.974;2022-09-12T18:49:53;95070.41;;;28.12;50.68
61674;BME280;47573;43.832;5.974;2022-09-12T18:54:55;95056.22;;;28.00;50.99
61674;BME280;47573;43.832;5.974;2022-09-12T18:59:56;95075.91;;;28.12;50.96
61674;BME280;47573;43.832;5.974;2022-09-12T19:04:56;95082.19;;;28.18;51.44
61674;BME280;47573;43.832;5.974;2022-09-12T19:09:58;95074.78;;;28.18;52.21
61674;BME280;47573;43.832;5.974;2022-09-12T19:14:58;95098.06;;;28.26;53.71
61674;BME280;47573;43.832;5.974;2022-09-12T19:19:59;95091.25;;;28.23;54.21
61674;BME280;47573;43.832;5.974;2022-09-12T19:25:01;95096.69;;;28.28;54.08
61674;BME280;47573;43.832;5.974;2022-09-12T19:30:02;95096.22;;;28.11;54.89
61674;BME280;47573;43.832;5.974;2022-09-12T19:35:02;95102.00;;;28.15;54.41
61674;BME280;47573;43.832;5.974;2022-09-12T19:40:05;95098.41;;;28.19;54.99
61674;BME280;47573;43.832;5.974;2022-09-12T19:45:06;95105.88;;;27.94;55.53
61674;BME280;47573;43.832;5.974;2022-09-12T19:50:07;95110.56;;;27.88;55.07
61674;BME280;47573;43.832;5.974;2022-09-12T19:55:09;95114.41;;;27.92;54.96
61674;BME280;47573;43.832;5.974;2022-09-12T20:00:10;95116.59;;;27.90;55.87
61674;BME280;47573;43.832;5.974;2022-09-12T20:05:11;95114.41;;;27.92;55.25
61674;BME280;47573;43.832;5.974;2022-09-12T20:10:13;95114.94;;;27.89;55.36
61674;BME280;47573;43.832;5.974;2022-09-12T20:15:14;95110.22;;;28.10;54.86
61674;BME280;47573;43.832;5.974;2022-09-12T20:20:15;95119.25;;;28.20;55.27
61674;BME280;47573;43.832;5.974;2022-09-12T20:25:17;95132.47;;;28.03;55.17
61674;BME280;47573;43.832;5.974;2022-09-12T20:30:18;95136.06;;;27.88;54.85
61674;BME280;47573;43.832;5.974;2022-09-12T20:35:18;95137.72;;;27.90;54.72
61674;BME280;47573;43.832;5.974;2022-09-12T20:40:20;95137.47;;;27.96;54.16
61674;BME280;47573;43.832;5.974;2022-09-12T20:45:21;95144.03;;;27.90;55.35
61674;BME280;47573;43.832;5.974;2022-09-12T20:50:21;95149.78;;;27.94;54.99
61674;BME280;47573;43.832;5.974;2022-09-12T20:55:23;95144.03;;;27.90;55.07
61674;BME280;47573;43.832;5.974;2022-09-12T21:00:24;95155.31;;;27.83;55.56
61674;BME280;47573;43.832;5.974;2022-09-12T21:05:24;95160.50;;;27.90;55.54
61674;BME280;47573;43.832;5.974;2022-09-12T21:10:26;95163.78;;;27.92;55.07
61674;BME280;47573;43.832;5.974;2022-09-12T21:15:26;95175.31;;;27.89;55.00
61674;BME280;47573;43.832;5.974;2022-09-12T21:20:27;95180.78;;;27.89;54.88
61674;BME280;47573;43.832;5.974;2022-09-12T21:25:29;95166.00;;;27.90;54.57
61674;BME280;47573;43.832;5.974;2022-09-12T21:30:30;95165.41;;;28.03;54.64
61674;BME280;47573;43.832;5.974;2022-09-12T21:35:32;95178.06;;;27.94;54.79
61674;BME280;47573;43.832;5.974;2022-09-12T21:40:34;95184.13;;;27.96;54.66
61674;BME280;47573;43.832;5.974;2022-09-12T21:45:35;95190.94;;;27.99;54.54
61674;BME280;47573;43.832;5.974;2022-09-12T21:50:35;95186.28;;;27.99;54.52
61674;BME280;47573;43.832;5.974;2022-09-12T21:55:37;95193.97;;;27.97;54.43
61674;BME280;47573;43.832;5.974;2022-09-12T22:00:39;95200.00;;;27.94;54.57
61674;BME280;47573;43.832;5.974;2022-09-12T22:05:39;95208.78;;;28.06;54.40
61674;BME280;47573;43.832;5.974;2022-09-12T22:10:41;95211.00;;;28.04;54.46
61674;BME280;47573;43.832;5.974;2022-09-12T22:15:42;95206.03;;;28.01;54.52
61674;BME280;47573;43.832;5.974;2022-09-12T22:20:43;95209.88;;;27.95;54.90
61674;BME280;47573;43.832;5.974;2022-09-12T22:25:45;95211.53;;;28.01;54.11
61674;BME280;47573;43.832;5.974;2022-09-12T22:30:46;95218.69;;;28.02;54.43
61674;BME280;47573;43.832;5.974;2022-09-12T22:35:46;95213.19;;;27.97;54.41
61674;BME280;47573;43.832;5.974;2022-09-12T22:40:48;95215.34;;;27.95;54.17
61674;BME280;47573;43.832;5.974;2022-09-12T22:45:49;95226.91;;;28.02;54.44
61674;BME280;47573;43.832;5.974;2022-09-12T22:50:49;95225.25;;;28.01;54.08
61674;BME280;47573;43.832;5.974;2022-09-12T22:55:51;95236.25;;;27.96;53.86
61674;BME280;47573;43.832;5.974;2022-09-12T23:00:51;95235.16;;;27.97;53.74
61674;BME280;47573;43.832;5.974;2022-09-12T23:05:52;95231.88;;;28.00;54.12
61674;BME280;47573;43.832;5.974;2022-09-12T23:11:00;95230.19;;;27.99;53.69
61674;BME280;47573;43.832;5.974;2022-09-12T23:16:03;95247.50;;;28.00;53.74
61674;BME280;47573;43.832;5.974;2022-09-12T23:21:06;95238.44;;;27.89;54.11
61674;BME280;47573;43.832;5.974;2022-09-12T23:26:10;95236.78;;;27.93;53.81
61674;BME280;47573;43.832;5.974;2022-09-12T23:31:11;95240.63;;;27.97;53.94
61674;BME280;47573;43.832;5.974;2022-09-12T23:36:12;95241.44;;;27.93;54.05
61674;BME280;47573;43.832;5.974;2022-09-12T23:41:15;95238.44;;;27.94;53.64
61674;BME280;47573;43.832;5.974;2022-09-12T23:46:17;95242.81;;;27.95;53.92
61674;BME280;47573;43.832;5.974;2022-09-12T23:51:18;95228.25;;;27.95;54.05
61674;BME280;47573;43.832;5.974;2022-09-12T23:56:20;95223.09;;;27.98;53.83
